Terminal Aerodrome Forecast
Issued by NWS

Current Version | Previous Version | Text Only | Print | Product List | Glossary On
Versions: 1 2 3 4 5 6 7 8 9 10 11 12 13 14 15 16 17 18
000
FTUS45 KFGZ 290500
TAFGCN
TAF
KGCN 290534Z 2906/3006 VRB05KT P6SM BKN120 OVC200
     FM291700 03005KT P6SM BKN100 OVC120
     FM292300 VRB05KT P6SM SCT040 OVC080=

USA.gov is the U.S. government's official web portal to all federal, state and local government web resources and services.